Troy Municipal Airport
KTOI : now visible

Airfield :











YOU CAN JOIN US ON...

 
LOGIN :

Register | Disclaimer

   EN    FR    IT 

 









Legend :    VFR   Marginal VFR   IFR   Intensive IFR   Very Intensive IFR
Visi :
Ceiling :
>= 8 km
>= 3000ft
5 to 8 km
1000 to 3000 ft
1500m to 5 km
500 to 1000 ft
800 to 1500m
200 to 500 ft
< 800m
< 200 ft
Symbols :   Thunderstorms  Fog  Heavy snow  Heavy precipitations  Wind > 20 kt







- Airport Elevation : 398 ft


KTOI - Troy Municipal

CURRENT METAR :
  • 202353Z AUTO 34004KT 10SM CLR 30/19 A2996 RMK AO2 SLP141 T03000189 10322 20300 58006

EXPIRED METARs :
  • 202253Z AUTO 35005KT 10SM CLR 31/18 A2997 RMK AO2 SLP143 T03110183
  • 202153Z AUTO 28004KT 10SM CLR 31/17 A2998 RMK AO2 SLP145 T03110172

TAF KTOI
Valid from the 21 at 00:00 until the 22 at 00:00 UTC


202323Z 2100/2124 VRB03KT P6SM FEW050
FM211100 00000KT 6SM BR SKC
FM211300 16005KT P6SM SKC
FM211800 18007KT P6SM FEW060
KZTL FIR / North America



MET'MAP, your aeronautical weather chart ! - Copyright ORBIFLY December 2007 - Disclaimer

ORBIFLY MET'MAP TEAM :

Programming & Development : Alexandra Zaïnal
Concept & Development : Baudouin d'Aumeries
Co-Development & Prog : Marc-Olivier Méhu
Technical & hardware support : Manuel Goepfert

Contact : metmap@orbifly.com




SOURCES & CREDITS :

   NOAA       Earth
Advisory